sensor_id;sensor_type;location;lat;lon;timestamp;P1;durP1;ratioP1;P2;durP2;ratioP2
17372;SDS011;8803;48.116;11.590;2023-08-07T00:00:14;1.40;;;0.90;;
17372;SDS011;8803;48.116;11.590;2023-08-07T00:02:19;0.90;;;0.80;;
17372;SDS011;8803;48.116;11.590;2023-08-07T00:04:23;1.87;;;1.23;;
17372;SDS011;8803;48.116;11.590;2023-08-07T00:06:28;1.40;;;0.97;;
17372;SDS011;8803;48.116;11.590;2023-08-07T00:08:40;1.10;;;1.00;;
17372;SDS011;8803;48.116;11.590;2023-08-07T00:10:45;2.10;;;1.10;;
17372;SDS011;8803;48.116;11.590;2023-08-07T00:12:49;1.97;;;1.00;;
17372;SDS011;8803;48.116;11.590;2023-08-07T00:14:54;1.37;;;1.13;;
17372;SDS011;8803;48.116;11.590;2023-08-07T00:16:59;0.90;;;0.70;;
17372;SDS011;8803;48.116;11.590;2023-08-07T00:19:11;1.17;;;1.07;;
17372;SDS011;8803;48.116;11.590;2023-08-07T00:21:16;1.03;;;0.93;;
17372;SDS011;8803;48.116;11.590;2023-08-07T00:23:20;0.87;;;0.87;;
17372;SDS011;8803;48.116;11.590;2023-08-07T00:25:33;1.03;;;0.80;;
17372;SDS011;8803;48.116;11.590;2023-08-07T00:27:38;2.30;;;0.90;;
17372;SDS011;8803;48.116;11.590;2023-08-07T00:29:42;1.00;;;0.90;;
17372;SDS011;8803;48.116;11.590;2023-08-07T00:31:55;2.20;;;1.00;;
17372;SDS011;8803;48.116;11.590;2023-08-07T00:34:00;3.20;;;0.90;;
17372;SDS011;8803;48.116;11.590;2023-08-07T00:36:05;1.17;;;0.87;;
17372;SDS011;8803;48.116;11.590;2023-08-07T00:38:18;5.67;;;1.10;;
17372;SDS011;8803;48.116;11.590;2023-08-07T00:40:22;1.37;;;1.10;;
17372;SDS011;8803;48.116;11.590;2023-08-07T00:42:27;1.20;;;0.90;;
17372;SDS011;8803;48.116;11.590;2023-08-07T00:44:31;1.83;;;1.17;;
17372;SDS011;8803;48.116;11.590;2023-08-07T00:46:36;1.80;;;1.03;;
17372;SDS011;8803;48.116;11.590;2023-08-07T00:48:41;1.83;;;1.17;;
17372;SDS011;8803;48.116;11.590;2023-08-07T00:50:45;1.50;;;1.00;;
17372;SDS011;8803;48.116;11.590;2023-08-07T00:52:50;1.87;;;1.03;;
17372;SDS011;8803;48.116;11.590;2023-08-07T00:54:55;1.50;;;1.10;;
17372;SDS011;8803;48.116;11.590;2023-08-07T00:57:02;1.90;;;1.07;;
17372;SDS011;8803;48.116;11.590;2023-08-07T00:59:16;1.60;;;1.00;;
17372;SDS011;8803;48.116;11.590;2023-08-07T01:01:20;1.40;;;1.03;;
17372;SDS011;8803;48.116;11.590;2023-08-07T01:03:25;1.30;;;1.00;;
17372;SDS011;8803;48.116;11.590;2023-08-07T01:05:29;1.50;;;0.87;;
17372;SDS011;8803;48.116;11.590;2023-08-07T01:07:34;1.97;;;1.30;;
17372;SDS011;8803;48.116;11.590;2023-08-07T01:09:38;1.33;;;0.90;;
17372;SDS011;8803;48.116;11.590;2023-08-07T01:11:44;1.20;;;1.10;;
17372;SDS011;8803;48.116;11.590;2023-08-07T01:13:54;1.27;;;0.90;;
17372;SDS011;8803;48.116;11.590;2023-08-07T01:16:03;2.67;;;1.27;;
17372;SDS011;8803;48.116;11.590;2023-08-07T01:18:08;2.23;;;1.03;;
17372;SDS011;8803;48.116;11.590;2023-08-07T01:20:13;1.07;;;0.90;;
17372;SDS011;8803;48.116;11.590;2023-08-07T01:22:18;1.37;;;0.90;;
17372;SDS011;8803;48.116;11.590;2023-08-07T01:24:23;2.57;;;1.03;;
17372;SDS011;8803;48.116;11.590;2023-08-07T01:26:27;1.40;;;1.07;;
17372;SDS011;8803;48.116;11.590;2023-08-07T01:28:42;0.97;;;0.87;;
17372;SDS011;8803;48.116;11.590;2023-08-07T01:30:49;1.67;;;1.00;;
17372;SDS011;8803;48.116;11.590;2023-08-07T01:32:57;1.60;;;0.73;;
17372;SDS011;8803;48.116;11.590;2023-08-07T01:35:05;0.80;;;0.70;;
17372;SDS011;8803;48.116;11.590;2023-08-07T01:37:10;2.57;;;0.80;;
17372;SDS011;8803;48.116;11.590;2023-08-07T01:39:16;2.10;;;1.13;;
17372;SDS011;8803;48.116;11.590;2023-08-07T01:41:22;3.07;;;1.40;;
17372;SDS011;8803;48.116;11.590;2023-08-07T01:43:28;1.10;;;1.00;;
17372;SDS011;8803;48.116;11.590;2023-08-07T01:45:33;1.37;;;1.10;;
17372;SDS011;8803;48.116;11.590;2023-08-07T01:47:46;0.97;;;0.90;;
17372;SDS011;8803;48.116;11.590;2023-08-07T01:49:50;0.80;;;0.80;;
17372;SDS011;8803;48.116;11.590;2023-08-07T01:51:55;0.93;;;0.90;;
17372;SDS011;8803;48.116;11.590;2023-08-07T01:54:08;1.40;;;0.90;;
17372;SDS011;8803;48.116;11.590;2023-08-07T01:56:12;1.63;;;1.17;;
17372;SDS011;8803;48.116;11.590;2023-08-07T01:58:16;2.37;;;1.00;;
17372;SDS011;8803;48.116;11.590;2023-08-07T02:00:21;1.60;;;1.00;;
17372;SDS011;8803;48.116;11.590;2023-08-07T02:02:26;2.37;;;1.00;;
17372;SDS011;8803;48.116;11.590;2023-08-07T02:04:30;1.50;;;1.10;;
17372;SDS011;8803;48.116;11.590;2023-08-07T02:06:35;1.00;;;0.90;;
17372;SDS011;8803;48.116;11.590;2023-08-07T02:08:39;1.57;;;1.00;;
17372;SDS011;8803;48.116;11.590;2023-08-07T02:10:44;1.20;;;1.07;;
17372;SDS011;8803;48.116;11.590;2023-08-07T02:12:49;3.87;;;0.90;;
17372;SDS011;8803;48.116;11.590;2023-08-07T02:14:53;1.60;;;1.10;;
17372;SDS011;8803;48.116;11.590;2023-08-07T02:16:57;0.90;;;0.90;;
17372;SDS011;8803;48.116;11.590;2023-08-07T02:19:02;1.10;;;1.00;;
17372;SDS011;8803;48.116;11.590;2023-08-07T02:21:06;0.80;;;0.80;;
17372;SDS011;8803;48.116;11.590;2023-08-07T02:23:10;2.00;;;1.27;;
17372;SDS011;8803;48.116;11.590;2023-08-07T02:25:15;2.27;;;1.00;;
17372;SDS011;8803;48.116;11.590;2023-08-07T02:27:30;1.20;;;1.00;;
17372;SDS011;8803;48.116;11.590;2023-08-07T02:29:34;2.00;;;0.97;;
17372;SDS011;8803;48.116;11.590;2023-08-07T02:31:39;1.10;;;1.00;;
17372;SDS011;8803;48.116;11.590;2023-08-07T02:33:43;1.53;;;1.00;;
17372;SDS011;8803;48.116;11.590;2023-08-07T02:35:48;1.33;;;1.10;;
17372;SDS011;8803;48.116;11.590;2023-08-07T02:37:53;1.20;;;0.83;;
17372;SDS011;8803;48.116;11.590;2023-08-07T02:39:57;1.63;;;1.30;;
17372;SDS011;8803;48.116;11.590;2023-08-07T02:42:02;1.10;;;0.80;;
17372;SDS011;8803;48.116;11.590;2023-08-07T02:44:07;1.37;;;1.27;;
17372;SDS011;8803;48.116;11.590;2023-08-07T02:46:11;2.50;;;1.00;;
17372;SDS011;8803;48.116;11.590;2023-08-07T02:48:16;2.07;;;1.20;;
17372;SDS011;8803;48.116;11.590;2023-08-07T02:50:29;2.17;;;1.20;;
17372;SDS011;8803;48.116;11.590;2023-08-07T02:52:33;2.33;;;1.20;;
17372;SDS011;8803;48.116;11.590;2023-08-07T02:56:49;1.47;;;1.00;;
17372;SDS011;8803;48.116;11.590;2023-08-07T02:58:54;1.70;;;1.27;;
17372;SDS011;8803;48.116;11.590;2023-08-07T03:01:03;1.83;;;1.27;;
17372;SDS011;8803;48.116;11.590;2023-08-07T03:03:08;1.90;;;1.27;;
17372;SDS011;8803;48.116;11.590;2023-08-07T03:05:12;1.97;;;1.20;;
17372;SDS011;8803;48.116;11.590;2023-08-07T03:07:17;2.33;;;1.20;;
17372;SDS011;8803;48.116;11.590;2023-08-07T03:09:30;1.17;;;0.93;;
17372;SDS011;8803;48.116;11.590;2023-08-07T03:11:34;1.30;;;1.10;;
17372;SDS011;8803;48.116;11.590;2023-08-07T03:13:39;3.17;;;1.23;;
17372;SDS011;8803;48.116;11.590;2023-08-07T03:16:04;1.30;;;1.00;;
17372;SDS011;8803;48.116;11.590;2023-08-07T03:18:09;1.73;;;1.17;;
17372;SDS011;8803;48.116;11.590;2023-08-07T03:20:16;1.23;;;1.13;;
17372;SDS011;8803;48.116;11.590;2023-08-07T03:22:20;2.00;;;1.13;;
17372;SDS011;8803;48.116;11.590;2023-08-07T03:24:25;1.83;;;1.23;;
17372;SDS011;8803;48.116;11.590;2023-08-07T03:26:38;1.50;;;1.40;;
17372;SDS011;8803;48.116;11.590;2023-08-07T03:28:42;2.83;;;1.23;;
17372;SDS011;8803;48.116;11.590;2023-08-07T03:30:48;1.50;;;1.00;;
17372;SDS011;8803;48.116;11.590;2023-08-07T03:33:01;2.87;;;1.30;;
17372;SDS011;8803;48.116;11.590;2023-08-07T03:35:07;1.53;;;1.20;;
17372;SDS011;8803;48.116;11.590;2023-08-07T03:37:11;1.63;;;1.20;;
17372;SDS011;8803;48.116;11.590;2023-08-07T03:39:24;1.77;;;1.20;;
17372;SDS011;8803;48.116;11.590;2023-08-07T03:41:29;2.50;;;1.47;;
17372;SDS011;8803;48.116;11.590;2023-08-07T03:43:33;1.80;;;1.10;;
17372;SDS011;8803;48.116;11.590;2023-08-07T03:45:37;1.67;;;1.10;;
17372;SDS011;8803;48.116;11.590;2023-08-07T03:47:42;1.60;;;1.30;;
17372;SDS011;8803;48.116;11.590;2023-08-07T03:49:47;1.67;;;1.30;;
17372;SDS011;8803;48.116;11.590;2023-08-07T03:54:03;1.60;;;1.20;;
17372;SDS011;8803;48.116;11.590;2023-08-07T03:56:08;2.10;;;1.30;;
17372;SDS011;8803;48.116;11.590;2023-08-07T03:58:12;1.97;;;1.70;;
17372;SDS011;8803;48.116;11.590;2023-08-07T04:00:17;2.30;;;1.43;;
17372;SDS011;8803;48.116;11.590;2023-08-07T04:02:22;1.50;;;1.17;;
17372;SDS011;8803;48.116;11.590;2023-08-07T04:04:26;1.53;;;1.20;;
17372;SDS011;8803;48.116;11.590;2023-08-07T04:06:30;1.63;;;1.30;;
17372;SDS011;8803;48.116;11.590;2023-08-07T04:08:47;1.57;;;1.30;;
17372;SDS011;8803;48.116;11.590;2023-08-07T04:11:00;3.13;;;1.70;;
17372;SDS011;8803;48.116;11.590;2023-08-07T04:13:05;3.03;;;1.17;;
17372;SDS011;8803;48.116;11.590;2023-08-07T04:15:10;1.60;;;1.43;;
17372;SDS011;8803;48.116;11.590;2023-08-07T04:17:14;1.40;;;1.20;;
17372;SDS011;8803;48.116;11.590;2023-08-07T04:19:19;1.40;;;1.30;;
17372;SDS011;8803;48.116;11.590;2023-08-07T04:21:23;2.77;;;1.53;;
17372;SDS011;8803;48.116;11.590;2023-08-07T04:23:27;5.53;;;1.60;;
17372;SDS011;8803;48.116;11.590;2023-08-07T04:25:32;2.27;;;1.30;;
17372;SDS011;8803;48.116;11.590;2023-08-07T04:27:37;2.13;;;1.20;;
17372;SDS011;8803;48.116;11.590;2023-08-07T04:29:41;2.30;;;1.30;;
17372;SDS011;8803;48.116;11.590;2023-08-07T04:31:45;2.50;;;1.40;;
17372;SDS011;8803;48.116;11.590;2023-08-07T04:33:50;2.47;;;1.50;;
17372;SDS011;8803;48.116;11.590;2023-08-07T04:35:54;1.40;;;1.10;;
17372;SDS011;8803;48.116;11.590;2023-08-07T04:37:58;2.00;;;1.30;;
17372;SDS011;8803;48.116;11.590;2023-08-07T04:40:05;2.67;;;1.70;;
17372;SDS011;8803;48.116;11.590;2023-08-07T04:42:19;2.97;;;1.73;;
17372;SDS011;8803;48.116;11.590;2023-08-07T04:44:23;2.43;;;1.73;;
17372;SDS011;8803;48.116;11.590;2023-08-07T04:46:28;1.60;;;1.40;;
17372;SDS011;8803;48.116;11.590;2023-08-07T04:48:34;1.50;;;1.27;;
17372;SDS011;8803;48.116;11.590;2023-08-07T04:50:38;3.27;;;1.80;;
17372;SDS011;8803;48.116;11.590;2023-08-07T04:52:43;1.83;;;1.50;;
17372;SDS011;8803;48.116;11.590;2023-08-07T04:54:48;1.70;;;1.27;;
17372;SDS011;8803;48.116;11.590;2023-08-07T04:56:52;1.67;;;1.23;;
17372;SDS011;8803;48.116;11.590;2023-08-07T04:58:56;1.57;;;1.43;;
17372;SDS011;8803;48.116;11.590;2023-08-07T05:01:02;1.73;;;1.27;;
17372;SDS011;8803;48.116;11.590;2023-08-07T05:03:06;2.33;;;1.63;;
17372;SDS011;8803;48.116;11.590;2023-08-07T05:05:10;1.97;;;1.30;;
17372;SDS011;8803;48.116;11.590;2023-08-07T05:07:15;2.40;;;1.50;;
17372;SDS011;8803;48.116;11.590;2023-08-07T05:09:28;1.63;;;1.43;;
17372;SDS011;8803;48.116;11.590;2023-08-07T05:11:34;1.30;;;1.20;;
17372;SDS011;8803;48.116;11.590;2023-08-07T05:13:38;2.77;;;1.60;;
17372;SDS011;8803;48.116;11.590;2023-08-07T05:15:42;2.83;;;1.40;;
17372;SDS011;8803;48.116;11.590;2023-08-07T05:17:48;2.57;;;1.20;;
17372;SDS011;8803;48.116;11.590;2023-08-07T05:19:53;2.47;;;1.30;;
17372;SDS011;8803;48.116;11.590;2023-08-07T05:21:58;1.33;;;1.10;;
17372;SDS011;8803;48.116;11.590;2023-08-07T05:24:03;2.20;;;1.60;;
17372;SDS011;8803;48.116;11.590;2023-08-07T05:26:08;1.67;;;1.40;;
17372;SDS011;8803;48.116;11.590;2023-08-07T05:28:12;1.57;;;1.33;;
17372;SDS011;8803;48.116;11.590;2023-08-07T05:30:16;1.77;;;1.60;;
17372;SDS011;8803;48.116;11.590;2023-08-07T05:32:31;1.67;;;1.20;;
17372;SDS011;8803;48.116;11.590;2023-08-07T05:34:37;1.90;;;1.23;;
17372;SDS011;8803;48.116;11.590;2023-08-07T05:36:50;1.43;;;1.10;;
17372;SDS011;8803;48.116;11.590;2023-08-07T05:38:54;3.77;;;1.63;;
17372;SDS011;8803;48.116;11.590;2023-08-07T05:40:58;2.30;;;1.40;;
17372;SDS011;8803;48.116;11.590;2023-08-07T05:43:02;3.07;;;1.53;;
17372;SDS011;8803;48.116;11.590;2023-08-07T05:45:09;2.20;;;1.40;;
17372;SDS011;8803;48.116;11.590;2023-08-07T05:47:13;1.57;;;1.40;;
17372;SDS011;8803;48.116;11.590;2023-08-07T05:49:18;1.97;;;1.60;;
17372;SDS011;8803;48.116;11.590;2023-08-07T05:51:31;3.87;;;1.50;;
17372;SDS011;8803;48.116;11.590;2023-08-07T05:53:37;2.67;;;1.50;;
17372;SDS011;8803;48.116;11.590;2023-08-07T05:55:41;1.90;;;1.53;;
17372;SDS011;8803;48.116;11.590;2023-08-07T05:57:46;2.50;;;1.57;;
17372;SDS011;8803;48.116;11.590;2023-08-07T05:59:51;1.23;;;1.10;;
17372;SDS011;8803;48.116;11.590;2023-08-07T06:01:55;1.60;;;1.50;;
17372;SDS011;8803;48.116;11.590;2023-08-07T06:04:00;3.07;;;1.63;;
17372;SDS011;8803;48.116;11.590;2023-08-07T06:06:04;2.67;;;1.37;;
17372;SDS011;8803;48.116;11.590;2023-08-07T06:08:09;3.20;;;1.60;;
17372;SDS011;8803;48.116;11.590;2023-08-07T06:10:13;4.93;;;1.53;;
17372;SDS011;8803;48.116;11.590;2023-08-07T06:12:18;1.73;;;1.40;;
17372;SDS011;8803;48.116;11.590;2023-08-07T06:14:31;1.70;;;1.20;;
17372;SDS011;8803;48.116;11.590;2023-08-07T06:16:35;2.00;;;1.60;;
17372;SDS011;8803;48.116;11.590;2023-08-07T06:18:40;2.27;;;1.53;;
17372;SDS011;8803;48.116;11.590;2023-08-07T06:20:53;3.43;;;1.73;;
17372;SDS011;8803;48.116;11.590;2023-08-07T06:22:58;2.37;;;1.47;;
17372;SDS011;8803;48.116;11.590;2023-08-07T06:25:03;3.73;;;1.30;;
17372;SDS011;8803;48.116;11.590;2023-08-07T06:27:09;1.60;;;1.30;;
17372;SDS011;8803;48.116;11.590;2023-08-07T06:29:14;2.73;;;1.83;;
17372;SDS011;8803;48.116;11.590;2023-08-07T06:31:18;2.00;;;1.57;;
17372;SDS011;8803;48.116;11.590;2023-08-07T06:33:22;1.27;;;1.13;;
17372;SDS011;8803;48.116;11.590;2023-08-07T06:35:27;2.40;;;1.60;;
17372;SDS011;8803;48.116;11.590;2023-08-07T06:37:31;2.80;;;1.63;;
17372;SDS011;8803;48.116;11.590;2023-08-07T06:39:36;2.53;;;1.30;;
17372;SDS011;8803;48.116;11.590;2023-08-07T06:41:49;1.20;;;1.07;;
17372;SDS011;8803;48.116;11.590;2023-08-07T06:43:53;2.07;;;1.43;;
17372;SDS011;8803;48.116;11.590;2023-08-07T06:45:58;2.30;;;1.40;;
17372;SDS011;8803;48.116;11.590;2023-08-07T06:48:03;2.27;;;1.60;;
17372;SDS011;8803;48.116;11.590;2023-08-07T06:50:09;2.20;;;1.60;;
17372;SDS011;8803;48.116;11.590;2023-08-07T06:52:14;2.00;;;1.43;;
17372;SDS011;8803;48.116;11.590;2023-08-07T06:54:18;1.70;;;1.30;;
17372;SDS011;8803;48.116;11.590;2023-08-07T06:56:25;1.87;;;1.53;;
17372;SDS011;8803;48.116;11.590;2023-08-07T06:58:29;1.37;;;1.00;;
17372;SDS011;8803;48.116;11.590;2023-08-07T07:00:33;13.87;;;2.10;;
17372;SDS011;8803;48.116;11.590;2023-08-07T07:02:38;3.17;;;1.50;;
17372;SDS011;8803;48.116;11.590;2023-08-07T07:04:42;4.90;;;1.00;;
17372;SDS011;8803;48.116;11.590;2023-08-07T07:06:55;4.97;;;1.20;;
17372;SDS011;8803;48.116;11.590;2023-08-07T07:09:00;4.23;;;3.20;;
17372;SDS011;8803;48.116;11.590;2023-08-07T07:11:04;7.07;;;3.63;;
17372;SDS011;8803;48.116;11.590;2023-08-07T07:13:09;3.10;;;2.80;;
17372;SDS011;8803;48.116;11.590;2023-08-07T07:15:14;3.07;;;2.43;;
17372;SDS011;8803;48.116;11.590;2023-08-07T07:17:18;2.37;;;1.10;;
17372;SDS011;8803;48.116;11.590;2023-08-07T07:19:23;1.50;;;1.30;;
17372;SDS011;8803;48.116;11.590;2023-08-07T07:21:36;1.53;;;1.20;;
17372;SDS011;8803;48.116;11.590;2023-08-07T07:23:40;3.07;;;1.23;;
17372;SDS011;8803;48.116;11.590;2023-08-07T07:25:53;2.30;;;1.20;;
17372;SDS011;8803;48.116;11.590;2023-08-07T07:27:58;1.73;;;1.30;;
17372;SDS011;8803;48.116;11.590;2023-08-07T07:30:03;1.90;;;1.50;;
17372;SDS011;8803;48.116;11.590;2023-08-07T07:32:17;2.10;;;1.40;;
17372;SDS011;8803;48.116;11.590;2023-08-07T07:34:22;2.07;;;1.20;;
17372;SDS011;8803;48.116;11.590;2023-08-07T07:36:26;2.03;;;1.40;;
17372;SDS011;8803;48.116;11.590;2023-08-07T07:38:39;2.43;;;1.20;;
17372;SDS011;8803;48.116;11.590;2023-08-07T07:40:44;1.90;;;1.50;;
17372;SDS011;8803;48.116;11.590;2023-08-07T07:42:48;2.77;;;1.50;;
17372;SDS011;8803;48.116;11.590;2023-08-07T07:45:02;1.57;;;1.10;;
17372;SDS011;8803;48.116;11.590;2023-08-07T07:47:08;1.40;;;1.30;;
17372;SDS011;8803;48.116;11.590;2023-08-07T07:49:21;3.37;;;1.40;;
17372;SDS011;8803;48.116;11.590;2023-08-07T07:51:26;2.33;;;1.33;;
17372;SDS011;8803;48.116;11.590;2023-08-07T07:53:30;1.30;;;1.10;;
17372;SDS011;8803;48.116;11.590;2023-08-07T07:55:35;2.30;;;1.40;;
17372;SDS011;8803;48.116;11.590;2023-08-07T07:57:47;1.97;;;1.80;;
17372;SDS011;8803;48.116;11.590;2023-08-07T07:59:52;2.43;;;1.30;;
17372;SDS011;8803;48.116;11.590;2023-08-07T08:01:56;2.53;;;1.57;;
17372;SDS011;8803;48.116;11.590;2023-08-07T08:04:09;3.43;;;1.33;;
17372;SDS011;8803;48.116;11.590;2023-08-07T08:06:13;2.63;;;1.93;;
17372;SDS011;8803;48.116;11.590;2023-08-07T08:08:18;2.80;;;1.70;;
17372;SDS011;8803;48.116;11.590;2023-08-07T08:10:22;2.50;;;1.43;;
17372;SDS011;8803;48.116;11.590;2023-08-07T08:12:27;3.77;;;1.20;;
17372;SDS011;8803;48.116;11.590;2023-08-07T08:14:34;1.87;;;1.60;;
17372;SDS011;8803;48.116;11.590;2023-08-07T08:16:38;2.13;;;1.40;;
17372;SDS011;8803;48.116;11.590;2023-08-07T08:18:43;1.97;;;1.20;;
17372;SDS011;8803;48.116;11.590;2023-08-07T08:20:47;2.37;;;1.40;;
17372;SDS011;8803;48.116;11.590;2023-08-07T08:22:51;2.03;;;1.50;;
17372;SDS011;8803;48.116;11.590;2023-08-07T08:24:56;1.93;;;1.37;;
17372;SDS011;8803;48.116;11.590;2023-08-07T08:27:09;1.97;;;1.30;;
17372;SDS011;8803;48.116;11.590;2023-08-07T08:29:14;2.23;;;1.10;;
17372;SDS011;8803;48.116;11.590;2023-08-07T08:31:19;1.80;;;1.20;;
17372;SDS011;8803;48.116;11.590;2023-08-07T08:33:31;2.87;;;1.57;;
17372;SDS011;8803;48.116;11.590;2023-08-07T08:35:36;1.87;;;1.67;;
17372;SDS011;8803;48.116;11.590;2023-08-07T08:37:40;1.50;;;1.30;;
17372;SDS011;8803;48.116;11.590;2023-08-07T08:39:44;1.73;;;1.30;;
17372;SDS011;8803;48.116;11.590;2023-08-07T08:41:49;2.10;;;1.90;;
17372;SDS011;8803;48.116;11.590;2023-08-07T08:43:54;3.70;;;2.83;;
17372;SDS011;8803;48.116;11.590;2023-08-07T08:48:11;4.67;;;4.07;;
17372;SDS011;8803;48.116;11.590;2023-08-07T08:50:19;2.67;;;1.83;;
17372;SDS011;8803;48.116;11.590;2023-08-07T08:52:33;2.67;;;1.50;;
17372;SDS011;8803;48.116;11.590;2023-08-07T08:54:39;4.43;;;1.40;;
17372;SDS011;8803;48.116;11.590;2023-08-07T08:56:44;2.60;;;1.33;;
17372;SDS011;8803;48.116;11.590;2023-08-07T08:58:49;2.20;;;1.37;;
17372;SDS011;8803;48.116;11.590;2023-08-07T09:00:54;1.63;;;1.30;;
17372;SDS011;8803;48.116;11.590;2023-08-07T09:02:59;1.60;;;1.20;;
17372;SDS011;8803;48.116;11.590;2023-08-07T09:05:04;2.40;;;1.30;;
17372;SDS011;8803;48.116;11.590;2023-08-07T09:07:10;2.30;;;1.50;;
17372;SDS011;8803;48.116;11.590;2023-08-07T09:09:17;1.73;;;1.30;;
17372;SDS011;8803;48.116;11.590;2023-08-07T09:11:23;2.00;;;1.60;;
17372;SDS011;8803;48.116;11.590;2023-08-07T09:13:28;2.33;;;1.53;;
17372;SDS011;8803;48.116;11.590;2023-08-07T09:15:34;2.70;;;1.67;;
17372;SDS011;8803;48.116;11.590;2023-08-07T09:17:41;2.40;;;1.47;;
17372;SDS011;8803;48.116;11.590;2023-08-07T09:19:47;1.90;;;1.50;;
17372;SDS011;8803;48.116;11.590;2023-08-07T09:21:51;2.53;;;1.40;;
17372;SDS011;8803;48.116;11.590;2023-08-07T09:23:56;1.47;;;1.30;;
17372;SDS011;8803;48.116;11.590;2023-08-07T09:26:01;2.23;;;1.47;;
17372;SDS011;8803;48.116;11.590;2023-08-07T09:28:06;2.37;;;1.17;;
17372;SDS011;8803;48.116;11.590;2023-08-07T09:30:12;1.47;;;1.30;;
17372;SDS011;8803;48.116;11.590;2023-08-07T09:32:16;1.30;;;1.20;;
17372;SDS011;8803;48.116;11.590;2023-08-07T09:34:23;1.73;;;1.30;;
17372;SDS011;8803;48.116;11.590;2023-08-07T09:36:27;2.03;;;1.50;;
17372;SDS011;8803;48.116;11.590;2023-08-07T09:38:33;1.77;;;1.47;;
17372;SDS011;8803;48.116;11.590;2023-08-07T09:40:38;4.20;;;1.77;;
17372;SDS011;8803;48.116;11.590;2023-08-07T09:42:44;1.63;;;1.40;;
17372;SDS011;8803;48.116;11.590;2023-08-07T09:44:49;1.77;;;1.27;;
17372;SDS011;8803;48.116;11.590;2023-08-07T09:46:54;1.80;;;1.50;;
17372;SDS011;8803;48.116;11.590;2023-08-07T09:48:58;4.57;;;1.50;;
17372;SDS011;8803;48.116;11.590;2023-08-07T09:51:03;2.07;;;1.37;;
17372;SDS011;8803;48.116;11.590;2023-08-07T09:53:17;1.93;;;1.40;;
17372;SDS011;8803;48.116;11.590;2023-08-07T09:55:23;2.80;;;1.20;;
17372;SDS011;8803;48.116;11.590;2023-08-07T09:57:27;2.23;;;1.30;;
17372;SDS011;8803;48.116;11.590;2023-08-07T09:59:40;3.70;;;1.40;;
17372;SDS011;8803;48.116;11.590;2023-08-07T10:01:44;1.60;;;1.20;;
17372;SDS011;8803;48.116;11.590;2023-08-07T10:03:49;2.33;;;1.60;;
17372;SDS011;8803;48.116;11.590;2023-08-07T10:05:53;1.87;;;1.70;;
17372;SDS011;8803;48.116;11.590;2023-08-07T10:07:59;3.30;;;1.50;;
17372;SDS011;8803;48.116;11.590;2023-08-07T10:10:06;2.73;;;1.40;;
17372;SDS011;8803;48.116;11.590;2023-08-07T10:12:11;2.33;;;1.63;;
17372;SDS011;8803;48.116;11.590;2023-08-07T10:14:19;3.43;;;1.73;;
17372;SDS011;8803;48.116;11.590;2023-08-07T10:16:24;3.27;;;1.60;;
17372;SDS011;8803;48.116;11.590;2023-08-07T10:18:30;1.70;;;1.40;;
17372;SDS011;8803;48.116;11.590;2023-08-07T10:20:35;2.30;;;1.50;;
17372;SDS011;8803;48.116;11.590;2023-08-07T10:22:42;1.93;;;1.40;;
17372;SDS011;8803;48.116;11.590;2023-08-07T10:24:48;3.03;;;1.50;;
17372;SDS011;8803;48.116;11.590;2023-08-07T10:26:53;5.43;;;1.67;;
17372;SDS011;8803;48.116;11.590;2023-08-07T10:29:00;2.60;;;1.33;;
17372;SDS011;8803;48.116;11.590;2023-08-07T10:31:06;2.73;;;1.57;;
17372;SDS011;8803;48.116;11.590;2023-08-07T10:33:13;3.57;;;2.80;;
17372;SDS011;8803;48.116;11.590;2023-08-07T10:35:25;4.97;;;2.10;;
17372;SDS011;8803;48.116;11.590;2023-08-07T10:37:38;2.90;;;2.00;;
17372;SDS011;8803;48.116;11.590;2023-08-07T10:40:01;1.77;;;1.50;;
17372;SDS011;8803;48.116;11.590;2023-08-07T10:42:07;2.80;;;1.77;;
17372;SDS011;8803;48.116;11.590;2023-08-07T10:44:19;3.20;;;2.30;;
17372;SDS011;8803;48.116;11.590;2023-08-07T10:46:24;3.60;;;1.80;;
17372;SDS011;8803;48.116;11.590;2023-08-07T10:48:28;2.57;;;1.77;;
17372;SDS011;8803;48.116;11.590;2023-08-07T10:50:34;2.80;;;1.70;;
17372;SDS011;8803;48.116;11.590;2023-08-07T10:52:40;3.83;;;1.47;;
17372;SDS011;8803;48.116;11.590;2023-08-07T10:54:54;2.10;;;1.40;;
17372;SDS011;8803;48.116;11.590;2023-08-07T10:56:58;3.00;;;1.63;;
17372;SDS011;8803;48.116;11.590;2023-08-07T10:59:08;2.03;;;1.47;;
17372;SDS011;8803;48.116;11.590;2023-08-07T11:01:22;3.37;;;2.00;;
17372;SDS011;8803;48.116;11.590;2023-08-07T11:03:35;3.67;;;2.30;;
17372;SDS011;8803;48.116;11.590;2023-08-07T11:05:39;3.33;;;2.40;;
17372;SDS011;8803;48.116;11.590;2023-08-07T11:07:44;2.43;;;1.80;;
17372;SDS011;8803;48.116;11.590;2023-08-07T11:12:01;3.17;;;1.70;;
17372;SDS011;8803;48.116;11.590;2023-08-07T11:14:08;2.00;;;1.60;;
17372;SDS011;8803;48.116;11.590;2023-08-07T11:16:13;3.00;;;1.40;;
17372;SDS011;8803;48.116;11.590;2023-08-07T11:18:18;2.70;;;1.80;;
17372;SDS011;8803;48.116;11.590;2023-08-07T11:20:22;5.83;;;2.90;;
17372;SDS011;8803;48.116;11.590;2023-08-07T11:22:27;2.23;;;1.70;;
17372;SDS011;8803;48.116;11.590;2023-08-07T11:24:32;1.70;;;1.40;;
17372;SDS011;8803;48.116;11.590;2023-08-07T11:26:37;1.57;;;1.40;;
17372;SDS011;8803;48.116;11.590;2023-08-07T11:28:42;2.50;;;1.60;;
17372;SDS011;8803;48.116;11.590;2023-08-07T11:30:48;1.30;;;1.20;;
17372;SDS011;8803;48.116;11.590;2023-08-07T11:32:53;2.90;;;1.37;;
17372;SDS011;8803;48.116;11.590;2023-08-07T11:34:57;1.67;;;1.20;;
17372;SDS011;8803;48.116;11.590;2023-08-07T11:37:04;2.33;;;1.60;;
17372;SDS011;8803;48.116;11.590;2023-08-07T11:39:08;1.43;;;1.33;;
17372;SDS011;8803;48.116;11.590;2023-08-07T11:41:13;1.53;;;1.30;;
17372;SDS011;8803;48.116;11.590;2023-08-07T11:43:27;1.60;;;1.40;;
17372;SDS011;8803;48.116;11.590;2023-08-07T11:45:32;1.30;;;0.90;;
17372;SDS011;8803;48.116;11.590;2023-08-07T11:47:37;2.00;;;1.10;;
17372;SDS011;8803;48.116;11.590;2023-08-07T11:49:42;1.33;;;1.23;;
17372;SDS011;8803;48.116;11.590;2023-08-07T11:51:47;1.67;;;1.47;;
17372;SDS011;8803;48.116;11.590;2023-08-07T11:53:52;1.83;;;1.37;;
17372;SDS011;8803;48.116;11.590;2023-08-07T11:55:59;2.67;;;1.40;;
17372;SDS011;8803;48.116;11.590;2023-08-07T11:58:05;1.10;;;1.00;;
17372;SDS011;8803;48.116;11.590;2023-08-07T12:00:12;1.30;;;1.13;;
17372;SDS011;8803;48.116;11.590;2023-08-07T12:02:22;2.30;;;1.27;;
17372;SDS011;8803;48.116;11.590;2023-08-07T12:04:29;1.70;;;1.40;;
17372;SDS011;8803;48.116;11.590;2023-08-07T12:06:52;1.00;;;0.90;;
17372;SDS011;8803;48.116;11.590;2023-08-07T12:08:57;3.03;;;1.20;;
17372;SDS011;8803;48.116;11.590;2023-08-07T12:13:23;1.17;;;1.00;;
17372;SDS011;8803;48.116;11.590;2023-08-07T12:15:28;2.63;;;1.10;;
17372;SDS011;8803;48.116;11.590;2023-08-07T12:17:33;1.80;;;1.40;;
17372;SDS011;8803;48.116;11.590;2023-08-07T12:19:38;2.17;;;1.37;;
17372;SDS011;8803;48.116;11.590;2023-08-07T12:21:45;3.80;;;1.57;;
17372;SDS011;8803;48.116;11.590;2023-08-07T12:23:58;1.60;;;1.10;;
17372;SDS011;8803;48.116;11.590;2023-08-07T12:26:03;1.30;;;1.20;;
17372;SDS011;8803;48.116;11.590;2023-08-07T12:28:09;1.70;;;1.20;;
17372;SDS011;8803;48.116;11.590;2023-08-07T12:30:21;2.20;;;1.90;;
17372;SDS011;8803;48.116;11.590;2023-08-07T12:32:26;1.93;;;1.60;;
17372;SDS011;8803;48.116;11.590;2023-08-07T12:34:30;3.20;;;1.30;;
17372;SDS011;8803;48.116;11.590;2023-08-07T12:36:34;2.47;;;1.27;;
17372;SDS011;8803;48.116;11.590;2023-08-07T12:38:39;2.30;;;1.43;;
17372;SDS011;8803;48.116;11.590;2023-08-07T12:40:43;1.80;;;1.20;;
17372;SDS011;8803;48.116;11.590;2023-08-07T12:42:48;1.90;;;1.13;;
17372;SDS011;8803;48.116;11.590;2023-08-07T12:45:00;3.87;;;1.70;;
17372;SDS011;8803;48.116;11.590;2023-08-07T12:47:06;1.83;;;1.20;;
17372;SDS011;8803;48.116;11.590;2023-08-07T12:49:10;1.33;;;1.23;;
17372;SDS011;8803;48.116;11.590;2023-08-07T12:51:15;1.50;;;1.07;;